createdAt,value
2022-11-20T00:01:34.452Z,118.70
2022-11-20T00:04:01.957Z,116.57
2022-11-20T00:06:29.798Z,123.82
2022-11-20T00:08:58.716Z,130.00
2022-11-20T00:11:27.880Z,132.70
2022-11-20T00:13:58.397Z,121.13
2022-11-20T00:16:29.078Z,122.72
2022-11-20T00:18:56.598Z,124.80
2022-11-20T00:21:26.687Z,122.97
2022-11-20T00:23:56.999Z,128.93
2022-11-20T00:26:27.562Z,127.18
2022-11-20T00:28:57.917Z,124.22
2022-11-20T00:31:25.957Z,123.65
2022-11-20T00:33:53.564Z,132.93
2022-11-20T00:36:23.676Z,122.70
2022-11-20T00:39:04.486Z,117.72
2022-11-20T00:41:31.956Z,120.25
2022-11-20T00:43:59.357Z,122.78
2022-11-20T00:46:28.847Z,128.25
2022-11-20T00:49:03.005Z,115.88
2022-11-20T00:51:30.400Z,123.57
2022-11-20T00:53:59.214Z,116.45
2022-11-20T00:56:27.157Z,115.68
2022-11-20T00:58:55.445Z,114.65
2022-11-20T01:01:26.583Z,108.53
2022-11-20T01:03:56.846Z,119.25
2022-11-20T01:06:30.438Z,121.03
2022-11-20T01:08:59.957Z,116.45
2022-11-20T01:11:32.682Z,118.20
2022-11-20T01:14:01.397Z,123.95
2022-11-20T01:16:32.518Z,113.50
2022-11-20T01:19:02.237Z,114.40
2022-11-20T01:21:32.359Z,113.20
2022-11-20T01:24:01.798Z,112.60
2022-11-20T01:26:38.279Z,121.70
2022-11-20T01:29:06.957Z,122.07
2022-11-20T01:31:37.040Z,119.70
2022-11-20T01:34:07.437Z,129.18
2022-11-20T01:36:37.064Z,117.00
2022-11-20T01:39:09.236Z,114.72
2022-11-20T01:41:54.957Z,119.55
2022-11-20T01:44:53.698Z,128.20
2022-11-20T01:47:45.779Z,119.70
2022-11-20T01:50:21.659Z,115.28
2022-11-20T01:53:04.738Z,120.38
2022-11-20T01:55:47.577Z,118.00
2022-11-20T01:58:18.670Z,115.85
2022-11-20T02:00:47.228Z,124.43
2022-11-20T02:03:23.896Z,119.15
2022-11-20T02:06:05.918Z,137.55
2022-11-20T02:08:37.276Z,141.20
2022-11-20T02:11:04.857Z,215.20
2022-11-20T02:13:46.708Z,176.68
2022-11-20T02:16:29.977Z,186.07
2022-11-20T02:19:00.905Z,200.95
2022-11-20T02:22:06.547Z,183.55
2022-11-20T02:24:34.057Z,157.75
2022-11-20T02:27:08.577Z,152.70
2022-11-20T02:29:41.699Z,143.52
2022-11-20T02:32:22.578Z,135.35
2022-11-20T02:34:49.977Z,129.77
2022-11-20T02:37:18.016Z,123.45
2022-11-20T02:39:53.185Z,131.82
2022-11-20T02:42:20.745Z,128.55
2022-11-20T02:44:48.177Z,130.68
2022-11-20T02:47:15.699Z,136.38
2022-11-20T02:49:43.097Z,132.05
2022-11-20T02:52:10.578Z,126.90
2022-11-20T02:54:38.017Z,122.78
2022-11-20T02:57:05.457Z,117.43
2022-11-20T02:59:34.017Z,127.03
2022-11-20T03:02:03.542Z,132.35
2022-11-20T03:04:32.345Z,131.73
2022-11-20T03:07:00.037Z,124.95
2022-11-20T03:09:27.459Z,138.35
2022-11-20T03:11:54.470Z,141.75
2022-11-20T03:14:21.747Z,158.05
2022-11-20T03:16:49.232Z,127.93
2022-11-20T03:19:16.657Z,127.40
2022-11-20T03:21:44.219Z,132.40
2022-11-20T03:24:11.620Z,126.18
2022-11-20T03:26:40.466Z,146.55
2022-11-20T03:29:08.496Z,130.48
2022-11-20T03:31:38.777Z,150.88
2022-11-20T03:34:08.017Z,129.02
2022-11-20T03:36:35.858Z,130.07
2022-11-20T03:39:04.147Z,132.10
2022-11-20T03:41:36.977Z,136.00
2022-11-20T03:46:32.506Z,136.02
2022-11-20T03:49:00.221Z,126.40
2022-11-20T03:51:31.858Z,128.70
2022-11-20T03:54:01.798Z,138.35
2022-11-20T03:56:31.937Z,128.50
2022-11-20T03:59:00.857Z,128.93
2022-11-20T04:01:33.550Z,128.57
2022-11-20T04:04:01.618Z,118.72
2022-11-20T04:06:31.978Z,124.35
2022-11-20T04:09:00.657Z,121.38
2022-11-20T04:11:30.057Z,121.05
2022-11-20T04:14:03.231Z,123.90
2022-11-20T04:16:33.057Z,119.15
2022-11-20T04:19:02.188Z,121.82
2022-11-20T04:21:29.746Z,123.85
2022-11-20T04:23:57.857Z,119.53
2022-11-20T04:26:28.266Z,120.20
2022-11-20T04:28:56.310Z,117.90
2022-11-20T04:31:27.818Z,122.05
2022-11-20T04:33:55.577Z,136.65
2022-11-20T04:36:25.697Z,126.18
2022-11-20T04:38:57.095Z,124.00
2022-11-20T04:41:27.457Z,124.15
2022-11-20T04:44:00.930Z,128.20
2022-11-20T04:46:30.979Z,127.55
2022-11-20T04:49:01.147Z,136.73
2022-11-20T04:51:28.787Z,125.50
2022-11-20T04:53:56.785Z,127.78
2022-11-20T04:56:24.307Z,127.20
2022-11-20T04:58:51.865Z,118.82
2022-11-20T05:01:25.516Z,129.63
2022-11-20T05:03:53.377Z,132.18
2022-11-20T05:06:22.588Z,113.20
2022-11-20T05:08:51.577Z,119.88
2022-11-20T05:11:21.548Z,124.60
2022-11-20T05:13:49.832Z,121.35
2022-11-20T05:16:25.427Z,125.22
2022-11-20T05:18:55.548Z,128.40
2022-11-20T05:21:25.064Z,124.50
2022-11-20T05:23:53.461Z,134.38
2022-11-20T05:26:23.344Z,129.68
2022-11-20T05:28:51.376Z,138.40
2022-11-20T05:31:27.656Z,131.82
2022-11-20T05:33:58.417Z,126.65
2022-11-20T05:36:25.657Z,127.90
2022-11-20T05:38:56.633Z,123.28
2022-11-20T05:41:27.538Z,125.20
2022-11-20T05:43:55.137Z,138.30
2022-11-20T05:46:28.276Z,126.28
2022-11-20T05:48:58.462Z,136.98
2022-11-20T05:51:26.825Z,134.38
2022-11-20T05:53:57.258Z,133.07
2022-11-20T05:56:24.818Z,128.27
2022-11-20T05:58:52.146Z,125.85
2022-11-20T06:01:22.741Z,120.63
2022-11-20T06:03:52.111Z,125.70
2022-11-20T06:06:21.229Z,123.60
2022-11-20T06:08:56.106Z,125.65
2022-11-20T06:11:23.218Z,129.15
2022-11-20T06:13:51.177Z,128.75
2022-11-20T06:16:21.057Z,129.95
2022-11-20T06:18:49.297Z,126.70
2022-11-20T06:21:22.857Z,126.95
2022-11-20T06:23:51.697Z,124.95
2022-11-20T06:26:22.385Z,129.65
2022-11-20T06:28:52.915Z,121.50
2022-11-20T06:31:22.497Z,128.32
2022-11-20T06:33:50.711Z,132.43
2022-11-20T06:36:22.795Z,134.10
2022-11-20T06:38:50.830Z,136.93
2022-11-20T06:41:21.098Z,125.80
2022-11-20T06:43:48.505Z,128.43
2022-11-20T06:46:20.746Z,144.63
2022-11-20T06:48:51.225Z,139.98
2022-11-20T06:51:20.500Z,132.15
2022-11-20T06:53:47.937Z,143.45
2022-11-20T06:56:15.543Z,131.27
2022-11-20T06:58:48.985Z,131.98
2022-11-20T07:01:16.841Z,147.98
2022-11-20T07:03:45.782Z,139.30
2022-11-20T07:06:15.538Z,145.95
2022-11-20T07:08:42.905Z,185.90
2022-11-20T07:11:13.659Z,178.13
2022-11-20T07:13:40.938Z,180.77
2022-11-20T07:16:09.711Z,183.02
2022-11-20T07:18:37.577Z,209.27
2022-11-20T07:21:08.420Z,248.32
2022-11-20T07:23:36.218Z,387.83
2022-11-20T07:26:09.058Z,485.92
2022-11-20T07:28:37.222Z,367.67
2022-11-20T07:31:13.428Z,290.20
2022-11-20T07:33:44.546Z,167.93
2022-11-20T07:36:12.151Z,165.82
2022-11-20T07:38:39.566Z,165.57
2022-11-20T07:41:07.038Z,178.23
2022-11-20T07:43:40.848Z,208.25
2022-11-20T07:46:08.838Z,186.95
2022-11-20T07:48:37.088Z,174.95
2022-11-20T07:51:04.521Z,164.60
2022-11-20T07:53:32.009Z,157.70
2022-11-20T07:56:03.195Z,167.60
2022-11-20T07:58:31.786Z,161.65
2022-11-20T08:01:09.446Z,163.32
2022-11-20T08:03:40.668Z,156.20
2022-11-20T08:06:08.749Z,146.00
2022-11-20T08:08:40.055Z,146.02
2022-11-20T08:11:29.578Z,142.32
2022-11-20T08:14:15.325Z,136.45
2022-11-20T08:16:45.298Z,137.55
2022-11-20T08:19:13.839Z,135.40
2022-11-20T08:21:41.568Z,130.70
2022-11-20T08:24:09.838Z,128.10
2022-11-20T08:26:38.518Z,121.93
2022-11-20T08:29:12.719Z,120.57
2022-11-20T08:31:40.048Z,115.72
2022-11-20T08:34:09.463Z,112.03
2022-11-20T08:36:37.438Z,115.40
2022-11-20T08:39:15.518Z,107.05
2022-11-20T08:41:42.918Z,99.85
2022-11-20T08:44:12.366Z,92.95
2022-11-20T08:46:48.410Z,98.60
2022-11-20T08:49:16.378Z,95.20
2022-11-20T08:51:43.941Z,89.07
2022-11-20T08:54:11.661Z,89.70
2022-11-20T08:56:38.781Z,81.57
2022-11-20T08:59:43.967Z,80.35
2022-11-20T09:01:55.019Z,76.95
2022-11-20T09:04:22.386Z,77.68
2022-11-20T09:06:52.311Z,79.47
2022-11-20T09:09:20.383Z,75.25
2022-11-20T09:11:47.785Z,70.57
2022-11-20T09:14:15.257Z,75.30
2022-11-20T09:16:46.543Z,66.55
2022-11-20T09:22:01.485Z,60.83
2022-11-20T09:24:29.458Z,56.20
2022-11-20T09:26:57.166Z,57.47
2022-11-20T09:29:24.519Z,63.45
2022-11-20T09:31:53.080Z,66.47
2022-11-20T09:34:21.440Z,65.10
2022-11-20T09:36:48.847Z,62.05
2022-11-20T09:39:16.646Z,60.38
2022-11-20T09:44:41.693Z,60.63
2022-11-20T09:47:27.199Z,52.20
2022-11-20T09:50:03.875Z,51.70
2022-11-20T09:52:47.060Z,51.97
2022-11-20T09:55:16.301Z,51.90
2022-11-20T09:57:49.258Z,46.30
2022-11-20T10:00:17.618Z,47.17
2022-11-20T10:03:06.818Z,44.47
2022-11-20T10:05:52.621Z,46.33
2022-11-20T10:08:25.419Z,43.70
2022-11-20T10:11:16.996Z,48.40
2022-11-20T10:14:08.106Z,51.65
2022-11-20T10:17:09.869Z,51.78
2022-11-20T10:19:56.981Z,53.15
2022-11-20T10:22:38.899Z,50.38
2022-11-20T10:25:21.466Z,53.38
2022-11-20T10:28:16.063Z,42.42
2022-11-20T10:30:47.193Z,47.83
2022-11-20T10:33:38.758Z,50.53
2022-11-20T10:36:24.505Z,56.03
2022-11-20T10:39:08.337Z,57.70
2022-11-20T10:41:50.819Z,59.33
2022-11-20T10:44:41.258Z,60.90
2022-11-20T10:47:19.873Z,63.55
2022-11-20T10:49:51.226Z,59.17
2022-11-20T10:52:52.508Z,58.67
2022-11-20T10:55:36.873Z,63.65
2022-11-20T10:58:20.617Z,48.33
2022-11-20T11:00:48.565Z,50.20
2022-11-20T11:03:32.178Z,47.08
2022-11-20T11:06:18.939Z,43.33
2022-11-20T11:08:48.819Z,45.08
2022-11-20T11:11:26.755Z,43.38
2022-11-20T11:13:54.026Z,45.95
2022-11-20T11:16:22.983Z,43.28
2022-11-20T11:18:52.619Z,43.33
2022-11-20T11:21:27.947Z,42.75
2022-11-20T11:24:42.192Z,43.50
2022-11-20T11:27:19.318Z,45.83
2022-11-20T11:29:49.867Z,39.70
2022-11-20T11:32:23.148Z,42.42
2022-11-20T11:35:05.467Z,42.85
2022-11-20T11:37:37.814Z,48.13
2022-11-20T11:40:24.566Z,45.42
2022-11-20T11:43:06.552Z,46.88
2022-11-20T11:45:33.978Z,48.80
2022-11-20T11:48:05.066Z,49.35
2022-11-20T11:50:32.539Z,51.47
2022-11-20T11:53:19.236Z,55.92
2022-11-20T11:55:58.308Z,60.40
2022-11-20T11:58:51.627Z,54.80
2022-11-20T12:01:23.751Z,56.83
2022-11-20T12:04:03.587Z,61.67
2022-11-20T12:06:33.547Z,69.15
2022-11-20T12:09:11.347Z,60.92
2022-11-20T12:11:56.858Z,63.60
2022-11-20T12:14:36.906Z,59.67
2022-11-20T12:17:05.990Z,62.63
2022-11-20T12:19:36.099Z,56.00
2022-11-20T12:22:25.766Z,53.63
2022-11-20T12:25:11.317Z,53.25
2022-11-20T12:28:04.760Z,51.47
2022-11-20T12:30:36.884Z,53.42
2022-11-20T12:33:37.719Z,48.17
2022-11-20T12:36:17.879Z,45.35
2022-11-20T12:39:01.481Z,44.30
2022-11-20T12:42:01.359Z,43.55
2022-11-20T12:44:59.081Z,41.22
2022-11-20T12:48:05.079Z,43.53
2022-11-20T12:51:13.862Z,42.05
2022-11-20T12:53:43.892Z,45.08
2022-11-20T12:56:36.519Z,47.10
2022-11-20T12:59:12.559Z,47.83
2022-11-20T13:02:03.218Z,45.72
2022-11-20T13:04:39.738Z,43.92
2022-11-20T13:07:17.596Z,45.28
2022-11-20T13:09:52.178Z,46.42
2022-11-20T13:12:35.180Z,44.67
2022-11-20T13:15:20.514Z,44.05
2022-11-20T13:17:58.026Z,48.97
2022-11-20T13:20:34.687Z,46.28
2022-11-20T13:23:04.926Z,47.05
2022-11-20T13:25:37.118Z,48.13
2022-11-20T13:28:14.446Z,48.10
2022-11-20T13:30:58.197Z,47.22
2022-11-20T13:33:43.318Z,49.75
2022-11-20T13:36:26.971Z,51.38
2022-11-20T13:38:57.891Z,47.05
2022-11-20T13:41:41.479Z,45.25
2022-11-20T13:44:34.372Z,41.78
2022-11-20T13:47:02.888Z,43.72
2022-11-20T13:49:45.439Z,37.20
2022-11-20T13:52:33.689Z,48.53
2022-11-20T13:55:37.008Z,31.80
2022-11-20T13:58:26.278Z,33.10
2022-11-20T14:01:31.218Z,32.55
2022-11-20T14:04:06.244Z,30.95
2022-11-20T14:06:46.608Z,35.15
2022-11-20T14:09:27.680Z,34.92
2022-11-20T14:11:55.039Z,36.10
2022-11-20T14:14:30.578Z,34.13
2022-11-20T14:17:37.046Z,33.10
2022-11-20T14:20:16.371Z,32.92
2022-11-20T14:22:55.328Z,35.63
2022-11-20T14:25:28.926Z,33.00
2022-11-20T14:28:00.366Z,35.55
2022-11-20T14:30:31.080Z,35.10
2022-11-20T14:33:03.806Z,38.30
2022-11-20T14:35:37.367Z,32.55
2022-11-20T14:38:16.846Z,34.38
2022-11-20T14:40:47.966Z,35.10
2022-11-20T14:43:30.582Z,35.47
2022-11-20T14:46:07.006Z,37.17
2022-11-20T14:48:42.844Z,35.60
2022-11-20T14:51:25.001Z,37.35
2022-11-20T14:53:53.279Z,37.95
2022-11-20T14:56:25.726Z,39.60
2022-11-20T14:59:01.398Z,32.67
2022-11-20T15:01:34.175Z,35.05
2022-11-20T15:04:12.809Z,36.33
2022-11-20T15:06:52.838Z,34.72
2022-11-20T15:09:21.119Z,38.65
2022-11-20T15:12:01.607Z,38.35
2022-11-20T15:14:31.880Z,58.97
2022-11-20T15:17:01.079Z,49.38
2022-11-20T15:19:30.638Z,45.78
2022-11-20T15:21:58.134Z,43.28
2022-11-20T15:24:27.845Z,35.78
2022-11-20T15:26:56.198Z,43.92
2022-11-20T15:29:25.598Z,38.78
2022-11-20T15:31:54.286Z,36.72
2022-11-20T15:34:21.780Z,31.85
2022-11-20T15:36:50.046Z,35.08
2022-11-20T15:39:19.619Z,33.50
2022-11-20T15:41:49.018Z,33.05
2022-11-20T15:44:22.873Z,37.70
2022-11-20T15:46:52.613Z,84.43
2022-11-20T15:49:25.845Z,32.17
2022-11-20T15:51:54.806Z,31.23
2022-11-20T15:54:28.999Z,32.45
2022-11-20T15:56:56.606Z,31.17
2022-11-20T15:59:24.486Z,38.58
2022-11-20T16:01:52.177Z,37.67
2022-11-20T16:04:21.322Z,41.53
2022-11-20T16:06:49.557Z,43.67
2022-11-20T16:09:17.120Z,36.85
2022-11-20T16:11:44.438Z,43.15
2022-11-20T16:14:31.371Z,35.38
2022-11-20T16:16:59.285Z,30.35
2022-11-20T16:19:27.279Z,30.48
2022-11-20T16:22:01.151Z,32.20
2022-11-20T16:24:30.608Z,33.20
2022-11-20T16:26:58.227Z,31.83
2022-11-20T16:29:25.857Z,34.42
2022-11-20T16:31:53.378Z,36.00
2022-11-20T16:34:20.588Z,35.38
2022-11-20T16:36:50.738Z,34.72
2022-11-20T16:39:23.409Z,36.88
2022-11-20T16:41:51.823Z,37.90
2022-11-20T16:44:19.444Z,37.67
2022-11-20T16:46:48.567Z,37.17
2022-11-20T16:49:16.039Z,33.40
2022-11-20T16:51:44.757Z,35.50
2022-11-20T16:54:16.427Z,38.38
2022-11-20T16:56:48.760Z,36.20
2022-11-20T16:59:16.009Z,39.53
2022-11-20T17:01:44.723Z,41.30
2022-11-20T17:04:13.760Z,39.47
2022-11-20T17:06:48.639Z,37.47
2022-11-20T17:09:16.362Z,42.72
2022-11-20T17:11:43.966Z,46.65
2022-11-20T17:14:14.279Z,46.65
2022-11-20T17:16:45.972Z,40.88
2022-11-20T17:19:17.481Z,42.88
2022-11-20T17:21:47.350Z,37.20
2022-11-20T17:24:17.877Z,41.40
2022-11-20T17:26:48.639Z,41.55
2022-11-20T17:29:19.061Z,40.25
2022-11-20T17:31:47.298Z,41.10
2022-11-20T17:34:21.618Z,42.40
2022-11-20T17:36:52.622Z,50.65
2022-11-20T17:39:20.619Z,55.20
2022-11-20T17:42:07.738Z,69.20
2022-11-20T17:44:35.390Z,61.03
2022-11-20T17:47:03.386Z,67.68
2022-11-20T17:49:32.027Z,61.58
2022-11-20T17:52:00.188Z,65.43
2022-11-20T17:54:32.146Z,55.90
2022-11-20T17:57:20.899Z,51.20
2022-11-20T17:59:48.586Z,53.55
2022-11-20T18:02:16.538Z,49.28
2022-11-20T18:04:44.378Z,50.03
2022-11-20T18:07:12.788Z,51.00
2022-11-20T18:09:40.738Z,51.22
2022-11-20T18:12:08.016Z,54.72
2022-11-20T18:14:39.431Z,55.45
2022-11-20T18:17:09.858Z,54.38
2022-11-20T18:19:44.890Z,60.83
2022-11-20T18:22:20.627Z,56.97
2022-11-20T18:24:50.387Z,53.35
2022-11-20T18:27:22.034Z,60.10
2022-11-20T18:29:52.599Z,56.10
2022-11-20T18:32:23.423Z,55.40
2022-11-20T18:34:52.210Z,61.83
2022-11-20T18:37:20.725Z,60.05
2022-11-20T18:39:57.809Z,55.50
2022-11-20T18:42:45.239Z,55.97
2022-11-20T18:45:25.287Z,65.15
2022-11-20T18:47:53.327Z,70.57
2022-11-20T18:50:21.368Z,94.22
2022-11-20T18:52:49.205Z,62.58
2022-11-20T18:55:19.397Z,84.20
2022-11-20T18:57:49.446Z,69.10
2022-11-20T19:00:18.612Z,69.78
2022-11-20T19:02:46.455Z,66.20
2022-11-20T19:05:16.400Z,71.70
2022-11-20T19:07:45.698Z,64.50
2022-11-20T19:10:16.557Z,73.32
2022-11-20T19:12:44.120Z,63.13
2022-11-20T19:15:13.966Z,67.63
2022-11-20T19:17:41.798Z,60.28
2022-11-20T19:20:11.248Z,57.35
2022-11-20T19:22:39.374Z,60.58
2022-11-20T19:25:14.159Z,59.72
2022-11-20T19:27:43.087Z,62.15
2022-11-20T19:30:11.918Z,58.65
2022-11-20T19:32:41.366Z,56.00
2022-11-20T19:35:10.367Z,58.38
2022-11-20T19:37:38.407Z,62.35
2022-11-20T19:40:06.279Z,59.85
2022-11-20T19:42:34.439Z,59.83
2022-11-20T19:45:03.047Z,60.05
2022-11-20T19:48:00.641Z,58.75
2022-11-20T19:50:25.037Z,59.58
2022-11-20T19:52:59.052Z,65.05
2022-11-20T19:55:27.399Z,60.95
2022-11-20T19:57:57.084Z,66.43
2022-11-20T20:00:32.926Z,65.53
2022-11-20T20:03:01.609Z,72.90
2022-11-20T20:05:32.719Z,84.40
2022-11-20T20:08:00.646Z,89.45
2022-11-20T20:10:28.760Z,128.95
2022-11-20T20:12:56.758Z,129.10
2022-11-20T20:15:24.930Z,97.40
2022-11-20T20:17:53.879Z,99.88
2022-11-20T20:20:21.682Z,112.28
2022-11-20T20:22:50.888Z,112.30
2022-11-20T20:25:19.726Z,109.82
2022-11-20T20:27:47.566Z,111.53
2022-11-20T20:30:15.398Z,159.50
2022-11-20T20:32:43.118Z,109.28
2022-11-20T20:35:10.517Z,98.90
2022-11-20T20:37:38.333Z,94.30
2022-11-20T20:40:09.731Z,93.80
2022-11-20T20:42:39.612Z,107.47
2022-11-20T20:45:13.598Z,133.35
2022-11-20T20:47:42.121Z,156.65
2022-11-20T20:50:12.896Z,159.27
2022-11-20T20:52:40.568Z,154.23
2022-11-20T20:55:09.005Z,139.15
2022-11-20T20:57:38.278Z,86.30
2022-11-20T21:00:08.888Z,85.38
2022-11-20T21:02:36.485Z,91.45
2022-11-20T21:05:04.957Z,89.43
2022-11-20T21:07:33.063Z,103.22
2022-11-20T21:10:00.525Z,101.10
2022-11-20T21:12:27.651Z,98.57
2022-11-20T21:14:56.085Z,96.43
2022-11-20T21:17:24.599Z,102.82
2022-11-20T21:19:54.838Z,97.93
2022-11-20T21:22:22.048Z,111.47
2022-11-20T21:24:49.486Z,108.50
2022-11-20T21:27:17.319Z,104.93
2022-11-20T21:29:46.040Z,105.15
2022-11-20T21:32:13.208Z,102.93
2022-11-20T21:34:40.518Z,104.75
2022-11-20T21:37:07.878Z,106.30
2022-11-20T21:39:34.966Z,103.03
2022-11-20T21:42:02.360Z,100.93
2022-11-20T21:44:31.942Z,100.88
2022-11-20T21:46:59.483Z,103.60
2022-11-20T21:49:34.126Z,95.60
2022-11-20T21:52:04.298Z,98.50
2022-11-20T21:54:36.727Z,97.53
2022-11-20T21:57:06.884Z,88.57
2022-11-20T21:59:38.418Z,94.15
2022-11-20T22:02:09.488Z,102.88
2022-11-20T22:04:37.538Z,101.35
2022-11-20T22:07:11.336Z,95.88
2022-11-20T22:09:39.593Z,121.38
2022-11-20T22:12:09.698Z,114.10
2022-11-20T22:14:38.817Z,115.28
2022-11-20T22:17:16.000Z,123.20
2022-11-20T22:19:44.439Z,145.70
2022-11-20T22:22:15.006Z,130.35
2022-11-20T22:24:45.973Z,117.20
2022-11-20T22:27:16.802Z,125.80
2022-11-20T22:29:47.927Z,117.93
2022-11-20T22:32:20.599Z,112.10
2022-11-20T22:34:48.958Z,100.78
2022-11-20T22:37:20.126Z,96.13
2022-11-20T22:39:50.559Z,105.28
2022-11-20T22:42:24.599Z,100.72
2022-11-20T22:44:54.197Z,100.88
2022-11-20T22:47:26.998Z,81.75
2022-11-20T22:49:57.078Z,84.75
2022-11-20T22:52:25.977Z,80.25
2022-11-20T22:54:56.539Z,84.40
2022-11-20T22:57:34.578Z,74.72
2022-11-20T23:00:07.598Z,84.28
2022-11-20T23:02:38.846Z,74.43
2022-11-20T23:05:06.979Z,77.22
2022-11-20T23:07:40.943Z,79.43
2022-11-20T23:10:20.207Z,79.68
2022-11-20T23:12:54.226Z,72.07
2022-11-20T23:15:32.959Z,78.35
2022-11-20T23:18:03.525Z,108.50
2022-11-20T23:20:38.481Z,105.78
2022-11-20T23:23:31.019Z,88.47
2022-11-20T23:26:08.721Z,100.45
2022-11-20T23:28:37.298Z,78.82
2022-11-20T23:31:06.745Z,83.13
2022-11-20T23:33:45.730Z,74.35
2022-11-20T23:36:18.460Z,72.90
2022-11-20T23:38:51.297Z,81.40
2022-11-20T23:41:22.279Z,82.25
2022-11-20T23:43:55.639Z,74.07
2022-11-20T23:46:25.758Z,73.10
2022-11-20T23:48:57.638Z,67.85
2022-11-20T23:51:30.638Z,71.63
2022-11-20T23:54:04.748Z,69.35
2022-11-20T23:56:34.318Z,65.65
2022-11-20T23:59:09.678Z,62.58
